sensor_id;sensor_type;location;lat;lon;timestamp;pressure;altitude;pressure_sealevel;temperature;humidity
71145;BME280;58812;47.698;17.726;2023-12-04T00:00:59;101082.31;;;-4.77;100.00
71145;BME280;58812;47.698;17.726;2023-12-04T00:03:24;101089.34;;;-4.79;100.00
71145;BME280;58812;47.698;17.726;2023-12-04T00:05:50;101087.66;;;-4.83;100.00
71145;BME280;58812;47.698;17.726;2023-12-04T00:08:15;101093.84;;;-4.89;100.00
71145;BME280;58812;47.698;17.726;2023-12-04T00:10:41;101086.97;;;-4.93;100.00
71145;BME280;58812;47.698;17.726;2023-12-04T00:13:06;101084.47;;;-4.99;100.00
71145;BME280;58812;47.698;17.726;2023-12-04T00:15:31;101086.41;;;-5.08;100.00
71145;BME280;58812;47.698;17.726;2023-12-04T00:17:57;101086.50;;;-5.15;100.00
71145;BME280;58812;47.698;17.726;2023-12-04T00:20:22;101073.38;;;-5.12;100.00
71145;BME280;58812;47.698;17.726;2023-12-04T00:22:47;101069.12;;;-5.16;100.00
71145;BME280;58812;47.698;17.726;2023-12-04T00:25:13;101069.12;;;-5.16;100.00
71145;BME280;58812;47.698;17.726;2023-12-04T00:27:38;101067.34;;;-5.14;100.00
71145;BME280;58812;47.698;17.726;2023-12-04T00:30:04;101065.66;;;-5.18;100.00
71145;BME280;58812;47.698;17.726;2023-12-04T00:32:31;101072.56;;;-5.14;100.00
71145;BME280;58812;47.698;17.726;2023-12-04T00:34:56;101066.50;;;-5.14;100.00
71145;BME280;58812;47.698;17.726;2023-12-04T00:37:22;101062.31;;;-5.24;100.00
71145;BME280;58812;47.698;17.726;2023-12-04T00:39:47;101069.25;;;-5.22;100.00
71145;BME280;58812;47.698;17.726;2023-12-04T00:42:13;101062.34;;;-5.26;100.00
71145;BME280;58812;47.698;17.726;2023-12-04T00:44:38;101074.47;;;-5.22;100.00
71145;BME280;58812;47.698;17.726;2023-12-04T00:47:03;101078.13;;;-5.32;100.00
71145;BME280;58812;47.698;17.726;2023-12-04T00:49:29;101079.12;;;-5.39;100.00
71145;BME280;58812;47.698;17.726;2023-12-04T00:51:54;101074.88;;;-5.46;100.00
71145;BME280;58812;47.698;17.726;2023-12-04T00:54:19;101081.94;;;-5.53;100.00
71145;BME280;58812;47.698;17.726;2023-12-04T00:56:45;101082.06;;;-5.60;100.00
71145;BME280;58812;47.698;17.726;2023-12-04T00:59:10;101089.00;;;-5.59;100.00
71145;BME280;58812;47.698;17.726;2023-12-04T01:01:37;101079.41;;;-5.57;100.00
71145;BME280;58812;47.698;17.726;2023-12-04T01:04:02;101086.16;;;-5.44;100.00
71145;BME280;58812;47.698;17.726;2023-12-04T01:06:28;101086.31;;;-5.55;100.00
71145;BME280;58812;47.698;17.726;2023-12-04T01:08:54;101081.22;;;-5.61;100.00
71145;BME280;58812;47.698;17.726;2023-12-04T01:11:20;101083.94;;;-5.69;100.00
71145;BME280;58812;47.698;17.726;2023-12-04T01:13:47;101084.13;;;-5.79;100.00
71145;BME280;58812;47.698;17.726;2023-12-04T01:16:12;101079.19;;;-5.96;100.00
71145;BME280;58812;47.698;17.726;2023-12-04T01:18:38;101080.94;;;-5.98;100.00
71145;BME280;58812;47.698;17.726;2023-12-04T01:21:03;101077.53;;;-6.05;100.00
71145;BME280;58812;47.698;17.726;2023-12-04T01:23:29;101087.87;;;-5.97;100.00
71145;BME280;58812;47.698;17.726;2023-12-04T01:25:54;101087.97;;;-6.03;100.00
71145;BME280;58812;47.698;17.726;2023-12-04T01:28:19;101082.88;;;-6.12;100.00
71145;BME280;58812;47.698;17.726;2023-12-04T01:30:45;101082.94;;;-6.15;100.00
71145;BME280;58812;47.698;17.726;2023-12-04T01:33:10;101080.34;;;-6.15;100.00
71145;BME280;58812;47.698;17.726;2023-12-04T01:35:36;101079.38;;;-6.11;100.00
71145;BME280;58812;47.698;17.726;2023-12-04T01:38:01;101078.34;;;-5.98;100.00
71145;BME280;58812;47.698;17.726;2023-12-04T01:40:27;101085.31;;;-5.99;100.00
71145;BME280;58812;47.698;17.726;2023-12-04T01:42:52;101077.50;;;-5.99;100.00
71145;BME280;58812;47.698;17.726;2023-12-04T01:45:18;101084.50;;;-6.05;100.00
71145;BME280;58812;47.698;17.726;2023-12-04T01:47:44;101081.94;;;-6.07;100.00
71145;BME280;58812;47.698;17.726;2023-12-04T01:50:12;101080.16;;;-6.03;100.00
71145;BME280;58812;47.698;17.726;2023-12-04T01:52:37;101073.25;;;-6.07;100.00
71145;BME280;58812;47.698;17.726;2023-12-04T01:55:05;101069.91;;;-6.15;100.00
71145;BME280;58812;47.698;17.726;2023-12-04T01:57:32;101074.06;;;-6.02;100.00
71145;BME280;58812;47.698;17.726;2023-12-04T01:59:58;101079.22;;;-5.99;100.00
71145;BME280;58812;47.698;17.726;2023-12-04T02:02:23;101072.38;;;-6.06;100.00
71145;BME280;58812;47.698;17.726;2023-12-04T02:04:49;101060.19;;;-6.04;100.00
71145;BME280;58812;47.698;17.726;2023-12-04T02:07:14;101057.75;;;-6.15;100.00
71145;BME280;58812;47.698;17.726;2023-12-04T02:09:40;101060.44;;;-6.23;100.00
71145;BME280;58812;47.698;17.726;2023-12-04T02:12:05;101071.75;;;-6.24;100.00
71145;BME280;58812;47.698;17.726;2023-12-04T02:14:31;101073.47;;;-6.21;100.00
71145;BME280;58812;47.698;17.726;2023-12-04T02:16:58;101068.38;;;-6.32;100.00
71145;BME280;58812;47.698;17.726;2023-12-04T02:19:24;101072.75;;;-6.32;100.00
71145;BME280;58812;47.698;17.726;2023-12-04T02:21:50;101071.81;;;-6.28;100.00
71145;BME280;58812;47.698;17.726;2023-12-04T02:24:15;101071.88;;;-6.33;100.00
71145;BME280;58812;47.698;17.726;2023-12-04T02:26:52;101067.66;;;-6.40;100.00
71145;BME280;58812;47.698;17.726;2023-12-04T02:29:39;101071.06;;;-6.38;100.00
71145;BME280;58812;47.698;17.726;2023-12-04T02:32:07;101076.44;;;-6.50;100.00
71145;BME280;58812;47.698;17.726;2023-12-04T02:34:37;101073.81;;;-6.49;100.00
71145;BME280;58812;47.698;17.726;2023-12-04T02:37:04;101079.06;;;-6.53;100.00
71145;BME280;58812;47.698;17.726;2023-12-04T02:39:30;101072.13;;;-6.53;100.00
71145;BME280;58812;47.698;17.726;2023-12-04T02:41:56;101072.13;;;-6.51;100.00
71145;BME280;58812;47.698;17.726;2023-12-04T02:44:21;101069.53;;;-6.51;100.00
71145;BME280;58812;47.698;17.726;2023-12-04T02:46:46;101067.81;;;-6.55;100.00
71145;BME280;58812;47.698;17.726;2023-12-04T02:49:12;101059.91;;;-6.46;100.00
71145;BME280;58812;47.698;17.726;2023-12-04T02:51:40;101057.25;;;-6.43;100.00
71145;BME280;58812;47.698;17.726;2023-12-04T02:54:06;101059.03;;;-6.45;100.00
71145;BME280;58812;47.698;17.726;2023-12-04T02:56:31;101053.91;;;-6.54;100.00
71145;BME280;58812;47.698;17.726;2023-12-04T02:58:57;101053.91;;;-6.54;100.00
71145;BME280;58812;47.698;17.726;2023-12-04T03:01:22;101043.56;;;-6.60;100.00
71145;BME280;58812;47.698;17.726;2023-12-04T03:03:47;101050.59;;;-6.64;100.00
71145;BME280;58812;47.698;17.726;2023-12-04T03:06:13;101055.72;;;-6.59;100.00
71145;BME280;58812;47.698;17.726;2023-12-04T03:08:41;101050.56;;;-6.62;100.00
71145;BME280;58812;47.698;17.726;2023-12-04T03:11:07;101049.69;;;-6.63;100.00
71145;BME280;58812;47.698;17.726;2023-12-04T03:13:33;101051.50;;;-6.68;100.00
71145;BME280;58812;47.698;17.726;2023-12-04T03:15:59;101043.72;;;-6.73;100.00
71145;BME280;58812;47.698;17.726;2023-12-04T03:18:25;101056.66;;;-6.65;100.00
71145;BME280;58812;47.698;17.726;2023-12-04T03:20:51;101051.59;;;-6.76;100.00
71145;BME280;58812;47.698;17.726;2023-12-04T03:23:16;101044.50;;;-6.64;100.00
71145;BME280;58812;47.698;17.726;2023-12-04T03:25:42;101048.94;;;-6.73;100.00
71145;BME280;58812;47.698;17.726;2023-12-04T03:28:07;101051.66;;;-6.80;100.00
71145;BME280;58812;47.698;17.726;2023-12-04T03:30:32;101057.84;;;-6.90;100.00
71145;BME280;58812;47.698;17.726;2023-12-04T03:32:58;101051.03;;;-7.02;100.00
71145;BME280;58812;47.698;17.726;2023-12-04T03:35:23;101049.25;;;-6.98;100.00
71145;BME280;58812;47.698;17.726;2023-12-04T03:37:49;101041.38;;;-6.94;100.00
71145;BME280;58812;47.698;17.726;2023-12-04T03:40:17;101038.78;;;-6.92;100.00
71145;BME280;58812;47.698;17.726;2023-12-04T03:42:42;101045.75;;;-6.96;100.00
71145;BME280;58812;47.698;17.726;2023-12-04T03:45:08;101045.78;;;-6.97;100.00
71145;BME280;58812;47.698;17.726;2023-12-04T03:47:34;101030.97;;;-6.92;100.00
71145;BME280;58812;47.698;17.726;2023-12-04T03:49:59;101039.72;;;-7.00;100.00
71145;BME280;58812;47.698;17.726;2023-12-04T03:52:24;101038.88;;;-7.02;100.00
71145;BME280;58812;47.698;17.726;2023-12-04T03:54:50;101043.19;;;-7.01;100.00
71145;BME280;58812;47.698;17.726;2023-12-04T03:57:15;101032.84;;;-7.04;100.00
71145;BME280;58812;47.698;17.726;2023-12-04T03:59:41;101035.47;;;-7.05;100.00
71145;BME280;58812;47.698;17.726;2023-12-04T04:02:06;101029.38;;;-7.04;100.00
71145;BME280;58812;47.698;17.726;2023-12-04T04:04:31;101033.72;;;-7.06;100.00
71145;BME280;58812;47.698;17.726;2023-12-04T04:06:57;101025.75;;;-6.94;100.00
71145;BME280;58812;47.698;17.726;2023-12-04T04:09:22;101030.13;;;-6.96;100.00
71145;BME280;58812;47.698;17.726;2023-12-04T04:11:48;101036.19;;;-6.92;100.00
71145;BME280;58812;47.698;17.726;2023-12-04T04:14:13;101045.78;;;-6.97;100.00
71145;BME280;58812;47.698;17.726;2023-12-04T04:16:39;101043.97;;;-6.94;100.00
71145;BME280;58812;47.698;17.726;2023-12-04T04:19:05;101037.06;;;-6.95;100.00
71145;BME280;58812;47.698;17.726;2023-12-04T04:21:31;101047.50;;;-6.98;100.00
71145;BME280;58812;47.698;17.726;2023-12-04T04:23:56;101036.16;;;-6.94;100.00
71145;BME280;58812;47.698;17.726;2023-12-04T04:26:21;101038.91;;;-7.03;100.00
71145;BME280;58812;47.698;17.726;2023-12-04T04:28:47;101044.16;;;-7.09;100.00
71145;BME280;58812;47.698;17.726;2023-12-04T04:31:12;101039.91;;;-7.18;100.00
71145;BME280;58812;47.698;17.726;2023-12-04T04:33:38;101054.69;;;-7.20;100.00
71145;BME280;58812;47.698;17.726;2023-12-04T04:36:03;101047.72;;;-7.19;100.00
71145;BME280;58812;47.698;17.726;2023-12-04T04:38:29;101045.19;;;-7.22;100.00
71145;BME280;58812;47.698;17.726;2023-12-04T04:40:54;101036.50;;;-7.24;100.00
71145;BME280;58812;47.698;17.726;2023-12-04T04:43:20;101036.50;;;-7.24;100.00
71145;BME280;58812;47.698;17.726;2023-12-04T04:45:45;101040.81;;;-7.23;100.00
71145;BME280;58812;47.698;17.726;2023-12-04T04:48:10;101035.59;;;-7.17;100.00
71145;BME280;58812;47.698;17.726;2023-12-04T04:50:36;101035.53;;;-7.11;100.00
71145;BME280;58812;47.698;17.726;2023-12-04T04:53:01;101033.00;;;-7.20;100.00
71145;BME280;58812;47.698;17.726;2023-12-04T04:55:27;101032.16;;;-7.22;100.00
71145;BME280;58812;47.698;17.726;2023-12-04T04:57:52;101033.87;;;-7.20;100.00
71145;BME280;58812;47.698;17.726;2023-12-04T05:00:18;101032.12;;;-7.19;100.00
71145;BME280;58812;47.698;17.726;2023-12-04T05:02:43;101026.84;;;-7.10;100.00
71145;BME280;58812;47.698;17.726;2023-12-04T05:05:08;101017.38;;;-7.19;100.00
71145;BME280;58812;47.698;17.726;2023-12-04T05:07:34;101024.31;;;-7.19;100.00
71145;BME280;58812;47.698;17.726;2023-12-04T05:09:59;101020.84;;;-7.18;100.00
71145;BME280;58812;47.698;17.726;2023-12-04T05:12:24;101013.91;;;-7.16;100.00
71145;BME280;58812;47.698;17.726;2023-12-04T05:14:50;101012.87;;;-7.06;100.00
71145;BME280;58812;47.698;17.726;2023-12-04T05:17:15;101012.16;;;-7.16;100.00
71145;BME280;58812;47.698;17.726;2023-12-04T05:19:41;101015.63;;;-7.18;100.00
71145;BME280;58812;47.698;17.726;2023-12-04T05:22:06;101015.47;;;-7.03;100.00
71145;BME280;58812;47.698;17.726;2023-12-04T05:24:32;101018.16;;;-7.12;100.00
71145;BME280;58812;47.698;17.726;2023-12-04T05:26:58;101010.37;;;-7.11;100.00
71145;BME280;58812;47.698;17.726;2023-12-04T05:29:23;101018.22;;;-7.18;100.00
71145;BME280;58812;47.698;17.726;2023-12-04T05:31:48;101016.50;;;-7.19;100.00
71145;BME280;58812;47.698;17.726;2023-12-04T05:34:14;101011.38;;;-7.22;100.00
71145;BME280;58812;47.698;17.726;2023-12-04T05:36:39;101013.22;;;-7.37;100.00
71145;BME280;58812;47.698;17.726;2023-12-04T05:39:05;101016.69;;;-7.35;100.00
71145;BME280;58812;47.698;17.726;2023-12-04T05:41:30;101015.88;;;-7.43;100.00
71145;BME280;58812;47.698;17.726;2023-12-04T05:43:56;101024.66;;;-7.51;100.00
71145;BME280;58812;47.698;17.726;2023-12-04T05:46:21;101029.81;;;-7.47;100.00
71145;BME280;58812;47.698;17.726;2023-12-04T05:48:47;101028.03;;;-7.40;100.00
71145;BME280;58812;47.698;17.726;2023-12-04T05:51:13;101030.53;;;-7.33;100.00
71145;BME280;58812;47.698;17.726;2023-12-04T05:53:39;101032.31;;;-7.35;100.00
71145;BME280;58812;47.698;17.726;2023-12-04T05:56:05;101014.22;;;-7.48;100.00
71145;BME280;58812;47.698;17.726;2023-12-04T05:58:30;101024.63;;;-7.47;100.00
71145;BME280;58812;47.698;17.726;2023-12-04T06:00:55;101017.66;;;-7.45;100.00
71145;BME280;58812;47.698;17.726;2023-12-04T06:03:21;101021.94;;;-7.39;100.00
71145;BME280;58812;47.698;17.726;2023-12-04T06:05:46;101024.59;;;-7.45;100.00
71145;BME280;58812;47.698;17.726;2023-12-04T06:08:12;101025.41;;;-7.39;100.00
71145;BME280;58812;47.698;17.726;2023-12-04T06:10:37;101016.81;;;-7.47;100.00
71145;BME280;58812;47.698;17.726;2023-12-04T06:13:03;101032.50;;;-7.56;100.00
71145;BME280;58812;47.698;17.726;2023-12-04T06:15:28;101032.38;;;-7.41;100.00
71145;BME280;58812;47.698;17.726;2023-12-04T06:17:53;101027.09;;;-7.35;100.00
71145;BME280;58812;47.698;17.726;2023-12-04T06:20:19;101026.25;;;-7.38;100.00
71145;BME280;58812;47.698;17.726;2023-12-04T06:22:45;101032.31;;;-7.35;100.00
71145;BME280;58812;47.698;17.726;2023-12-04T06:25:11;101041.91;;;-7.43;100.00
71145;BME280;58812;47.698;17.726;2023-12-04T06:27:36;101040.09;;;-7.36;100.00
71145;BME280;58812;47.698;17.726;2023-12-04T06:30:05;101039.25;;;-7.37;100.00
71145;BME280;58812;47.698;17.726;2023-12-04T06:32:31;101039.94;;;-7.19;100.00
71145;BME280;58812;47.698;17.726;2023-12-04T06:34:57;101045.94;;;-7.14;100.00
71145;BME280;58812;47.698;17.726;2023-12-04T06:37:23;101041.66;;;-7.20;100.00
71145;BME280;58812;47.698;17.726;2023-12-04T06:39:49;101044.19;;;-7.12;100.00
71145;BME280;58812;47.698;17.726;2023-12-04T06:42:17;101047.66;;;-7.10;100.00
71145;BME280;58812;47.698;17.726;2023-12-04T06:44:43;101044.13;;;-7.06;100.00
71145;BME280;58812;47.698;17.726;2023-12-04T06:47:09;101046.69;;;-7.02;100.00
71145;BME280;58812;47.698;17.726;2023-12-04T06:49:37;101044.13;;;-7.06;100.00
71145;BME280;58812;47.698;17.726;2023-12-04T06:52:03;101050.03;;;-6.90;100.00
71145;BME280;58812;47.698;17.726;2023-12-04T06:54:28;101043.81;;;-6.79;100.00
71145;BME280;58812;47.698;17.726;2023-12-04T06:56:54;101049.00;;;-6.76;100.00
71145;BME280;58812;47.698;17.726;2023-12-04T06:59:19;101053.13;;;-6.61;100.00
71145;BME280;58812;47.698;17.726;2023-12-04T07:01:45;101052.22;;;-6.57;100.00
71145;BME280;58812;47.698;17.726;2023-12-04T07:04:11;101048.72;;;-6.54;100.00
71145;BME280;58812;47.698;17.726;2023-12-04T07:06:37;101040.78;;;-6.45;100.00
71145;BME280;58812;47.698;17.726;2023-12-04T07:09:02;101052.03;;;-6.43;100.00
71145;BME280;58812;47.698;17.726;2023-12-04T07:11:28;101049.44;;;-6.43;100.00
71145;BME280;58812;47.698;17.726;2023-12-04T07:13:53;101046.66;;;-6.31;100.00
71145;BME280;58812;47.698;17.726;2023-12-04T07:16:19;101050.97;;;-6.27;100.00
71145;BME280;58812;47.698;17.726;2023-12-04T07:18:44;101049.97;;;-6.20;100.00
71145;BME280;58812;47.698;17.726;2023-12-04T07:21:10;101050.75;;;-6.13;100.00
71145;BME280;58812;47.698;17.726;2023-12-04T07:23:35;101053.19;;;-6.02;100.00
71145;BME280;58812;47.698;17.726;2023-12-04T07:26:00;101046.87;;;-5.89;100.00
71145;BME280;58812;47.698;17.726;2023-12-04T07:28:26;101042.53;;;-5.87;100.00
71145;BME280;58812;47.698;17.726;2023-12-04T07:30:51;101056.28;;;-5.79;100.00
71145;BME280;58812;47.698;17.726;2023-12-04T07:33:17;101047.37;;;-5.66;100.00
71145;BME280;58812;47.698;17.726;2023-12-04T07:35:42;101055.91;;;-5.56;100.00
71145;BME280;58812;47.698;17.726;2023-12-04T07:38:08;101053.09;;;-5.44;100.00
71145;BME280;58812;47.698;17.726;2023-12-04T07:40:33;101047.63;;;-5.30;100.00
71145;BME280;58812;47.698;17.726;2023-12-04T07:42:59;101046.53;;;-5.18;100.00
71145;BME280;58812;47.698;17.726;2023-12-04T07:45:24;101042.84;;;-5.06;100.00
71145;BME280;58812;47.698;17.726;2023-12-04T07:47:50;101053.06;;;-4.94;100.00
71145;BME280;58812;47.698;17.726;2023-12-04T07:50:16;101041.59;;;-4.86;100.00
71145;BME280;58812;47.698;17.726;2023-12-04T07:52:41;101049.25;;;-4.78;100.00
71145;BME280;58812;47.698;17.726;2023-12-04T07:55:07;101042.12;;;-4.70;100.00
71145;BME280;58812;47.698;17.726;2023-12-04T07:57:32;101035.84;;;-4.61;100.00
71145;BME280;58812;47.698;17.726;2023-12-04T07:59:58;101039.25;;;-4.56;100.00
71145;BME280;58812;47.698;17.726;2023-12-04T08:02:23;101030.25;;;-4.43;100.00
71145;BME280;58812;47.698;17.726;2023-12-04T08:04:48;101020.37;;;-4.30;100.00
71145;BME280;58812;47.698;17.726;2023-12-04T08:07:14;101022.84;;;-4.24;100.00
71145;BME280;58812;47.698;17.726;2023-12-04T08:09:40;101032.25;;;-4.17;100.00
71145;BME280;58812;47.698;17.726;2023-12-04T08:12:06;101027.66;;;-4.06;100.00
71145;BME280;58812;47.698;17.726;2023-12-04T08:14:32;101018.00;;;-4.02;100.00
71145;BME280;58812;47.698;17.726;2023-12-04T08:16:58;101022.97;;;-3.91;100.00
71145;BME280;58812;47.698;17.726;2023-12-04T08:19:23;101023.78;;;-3.89;100.00
71145;BME280;58812;47.698;17.726;2023-12-04T08:21:49;101026.00;;;-3.74;100.00
71145;BME280;58812;47.698;17.726;2023-12-04T08:24:14;101035.25;;;-3.59;100.00
71145;BME280;58812;47.698;17.726;2023-12-04T08:26:42;101022.88;;;-3.53;100.00
71145;BME280;58812;47.698;17.726;2023-12-04T08:29:07;101018.22;;;-3.41;100.00
71145;BME280;58812;47.698;17.726;2023-12-04T08:31:33;101031.00;;;-3.29;100.00
71145;BME280;58812;47.698;17.726;2023-12-04T08:33:58;101031.62;;;-3.19;100.00
71145;BME280;58812;47.698;17.726;2023-12-04T08:36:24;101030.44;;;-3.08;100.00
71145;BME280;58812;47.698;17.726;2023-12-04T08:38:49;101030.03;;;-2.94;100.00
71145;BME280;58812;47.698;17.726;2023-12-04T08:41:15;101028.91;;;-2.85;100.00
71145;BME280;58812;47.698;17.726;2023-12-04T08:43:40;101033.91;;;-2.76;100.00
71145;BME280;58812;47.698;17.726;2023-12-04T08:46:06;101035.44;;;-2.69;100.00
71145;BME280;58812;47.698;17.726;2023-12-04T08:48:32;101032.03;;;-2.71;100.00
71145;BME280;58812;47.698;17.726;2023-12-04T08:50:58;101035.19;;;-2.60;100.00
71145;BME280;58812;47.698;17.726;2023-12-04T08:53:23;101031.56;;;-2.56;100.00
71145;BME280;58812;47.698;17.726;2023-12-04T08:55:49;101036.81;;;-2.56;100.00
71145;BME280;58812;47.698;17.726;2023-12-04T08:58:17;101033.94;;;-2.47;100.00
71145;BME280;58812;47.698;17.726;2023-12-04T09:00:42;101029.41;;;-2.42;100.00
71145;BME280;58812;47.698;17.726;2023-12-04T09:03:09;101032.28;;;-2.21;100.00
71145;BME280;58812;47.698;17.726;2023-12-04T09:05:36;101028.53;;;-2.12;100.00
71145;BME280;58812;47.698;17.726;2023-12-04T09:08:01;101025.72;;;-2.06;100.00
71145;BME280;58812;47.698;17.726;2023-12-04T09:10:27;101028.59;;;-1.87;100.00
71145;BME280;58812;47.698;17.726;2023-12-04T09:12:54;101021.62;;;-1.62;100.00
71145;BME280;58812;47.698;17.726;2023-12-04T09:15:19;101025.12;;;-1.35;100.00
71145;BME280;58812;47.698;17.726;2023-12-04T09:17:45;101017.75;;;-1.25;100.00
71145;BME280;58812;47.698;17.726;2023-12-04T09:20:10;101014.62;;;-1.10;100.00
71145;BME280;58812;47.698;17.726;2023-12-04T09:22:36;101017.16;;;-0.84;98.71
71145;BME280;58812;47.698;17.726;2023-12-04T09:25:05;101018.06;;;-0.61;97.11
71145;BME280;58812;47.698;17.726;2023-12-04T09:27:31;101013.16;;;-0.02;94.62
71145;BME280;58812;47.698;17.726;2023-12-04T09:29:56;101012.12;;;0.45;93.40
71145;BME280;58812;47.698;17.726;2023-12-04T09:32:21;101003.19;;;0.90;90.62
71145;BME280;58812;47.698;17.726;2023-12-04T09:34:47;100993.34;;;0.93;89.08
71145;BME280;58812;47.698;17.726;2023-12-04T09:37:13;100990.94;;;0.68;89.29
71145;BME280;58812;47.698;17.726;2023-12-04T09:39:39;100991.28;;;1.20;87.77
71145;BME280;58812;47.698;17.726;2023-12-04T09:42:05;100991.94;;;1.63;87.40
71145;BME280;58812;47.698;17.726;2023-12-04T09:44:32;100996.09;;;2.05;85.62
71145;BME280;58812;47.698;17.726;2023-12-04T09:46:58;100990.72;;;2.60;80.66
71145;BME280;58812;47.698;17.726;2023-12-04T09:49:26;100991.31;;;3.00;81.58
71145;BME280;58812;47.698;17.726;2023-12-04T09:51:53;100976.91;;;3.70;78.61
71145;BME280;58812;47.698;17.726;2023-12-04T09:54:19;100987.50;;;4.01;76.34
71145;BME280;58812;47.698;17.726;2023-12-04T09:56:44;100981.63;;;3.16;75.80
71145;BME280;58812;47.698;17.726;2023-12-04T09:59:13;100967.19;;;3.86;75.79
71145;BME280;58812;47.698;17.726;2023-12-04T10:01:40;100968.34;;;3.96;72.46
71145;BME280;58812;47.698;17.726;2023-12-04T10:04:06;100954.34;;;4.10;75.05
71145;BME280;58812;47.698;17.726;2023-12-04T10:06:31;100947.19;;;4.57;72.00
71145;BME280;58812;47.698;17.726;2023-12-04T10:08:57;100952.25;;;5.04;70.22
71145;BME280;58812;47.698;17.726;2023-12-04T10:11:24;100942.59;;;5.46;67.83
71145;BME280;58812;47.698;17.726;2023-12-04T10:13:50;100935.81;;;5.54;65.10
71145;BME280;58812;47.698;17.726;2023-12-04T10:16:34;100938.16;;;5.18;67.91
71145;BME280;58812;47.698;17.726;2023-12-04T10:19:20;100925.59;;;5.48;65.74
71145;BME280;58812;47.698;17.726;2023-12-04T10:21:49;100919.66;;;5.72;65.01
71145;BME280;58812;47.698;17.726;2023-12-04T10:26:57;100909.78;;;5.32;62.15
71145;BME280;58812;47.698;17.726;2023-12-04T10:29:23;100913.44;;;5.58;60.94
71145;BME280;58812;47.698;17.726;2023-12-04T10:31:50;100909.22;;;5.13;63.64
71145;BME280;58812;47.698;17.726;2023-12-04T10:34:16;100901.00;;;4.75;65.44
71145;BME280;58812;47.698;17.726;2023-12-04T10:36:41;100901.06;;;4.73;65.36
71145;BME280;58812;47.698;17.726;2023-12-04T10:39:07;100901.56;;;4.94;64.06
71145;BME280;58812;47.698;17.726;2023-12-04T10:41:32;100899.53;;;5.68;60.95
71145;BME280;58812;47.698;17.726;2023-12-04T10:43:58;100893.41;;;4.97;63.29
71145;BME280;58812;47.698;17.726;2023-12-04T10:46:26;100897.25;;;5.76;62.33
71145;BME280;58812;47.698;17.726;2023-12-04T10:48:52;100891.16;;;4.33;64.25
71145;BME280;58812;47.698;17.726;2023-12-04T10:51:19;100893.81;;;5.74;63.19
71145;BME280;58812;47.698;17.726;2023-12-04T10:53:44;100891.50;;;4.85;62.72
71145;BME280;58812;47.698;17.726;2023-12-04T10:56:15;100890.87;;;5.78;61.96
71145;BME280;58812;47.698;17.726;2023-12-04T10:58:44;100891.09;;;6.55;59.86
71145;BME280;58812;47.698;17.726;2023-12-04T11:01:12;100885.13;;;5.72;58.83
71145;BME280;58812;47.698;17.726;2023-12-04T11:03:47;100881.91;;;5.67;61.09
71145;BME280;58812;47.698;17.726;2023-12-04T11:06:16;100880.00;;;6.35;59.40
71145;BME280;58812;47.698;17.726;2023-12-04T11:08:42;100877.53;;;6.20;58.75
71145;BME280;58812;47.698;17.726;2023-12-04T11:11:12;100869.25;;;4.73;61.81
71145;BME280;58812;47.698;17.726;2023-12-04T11:13:41;100869.72;;;4.94;60.97
71145;BME280;58812;47.698;17.726;2023-12-04T11:16:16;100859.00;;;3.94;58.39
71145;BME280;58812;47.698;17.726;2023-12-04T11:18:44;100851.78;;;3.66;57.18
71145;BME280;58812;47.698;17.726;2023-12-04T11:21:13;100846.34;;;3.99;55.22
71145;BME280;58812;47.698;17.726;2023-12-04T11:23:39;100840.19;;;3.69;55.84
71145;BME280;58812;47.698;17.726;2023-12-04T11:26:06;100830.69;;;3.95;54.52
71145;BME280;58812;47.698;17.726;2023-12-04T11:28:33;100835.53;;;3.11;55.34
71145;BME280;58812;47.698;17.726;2023-12-04T11:30:59;100829.47;;;3.09;55.14
71145;BME280;58812;47.698;17.726;2023-12-04T11:33:26;100832.63;;;3.15;56.20
71145;BME280;58812;47.698;17.726;2023-12-04T11:35:51;100818.97;;;2.91;57.05
71145;BME280;58812;47.698;17.726;2023-12-04T11:38:17;100815.81;;;3.32;57.90
71145;BME280;58812;47.698;17.726;2023-12-04T11:40:43;100813.34;;;3.29;57.21
71145;BME280;58812;47.698;17.726;2023-12-04T11:43:27;100801.62;;;3.02;56.72
71145;BME280;58812;47.698;17.726;2023-12-04T11:46:07;100799.44;;;3.10;55.43
71145;BME280;58812;47.698;17.726;2023-12-04T11:48:34;100795.16;;;3.23;56.44
71145;BME280;58812;47.698;17.726;2023-12-04T11:50:59;100796.25;;;2.72;53.49
71145;BME280;58812;47.698;17.726;2023-12-04T11:53:25;100794.13;;;2.62;54.67
71145;BME280;58812;47.698;17.726;2023-12-04T11:55:55;100786.69;;;2.53;55.36
71145;BME280;58812;47.698;17.726;2023-12-04T11:58:22;100792.50;;;2.76;55.46
71145;BME280;58812;47.698;17.726;2023-12-04T12:00:48;100782.97;;;3.05;55.98
71145;BME280;58812;47.698;17.726;2023-12-04T12:03:14;100778.03;;;2.67;55.13
71145;BME280;58812;47.698;17.726;2023-12-04T12:05:40;100776.63;;;2.60;55.58
71145;BME280;58812;47.698;17.726;2023-12-04T12:08:07;100766.16;;;2.25;56.27
71145;BME280;58812;47.698;17.726;2023-12-04T12:10:33;100772.87;;;2.15;57.68
71145;BME280;58812;47.698;17.726;2023-12-04T12:12:59;100754.06;;;2.21;57.93
71145;BME280;58812;47.698;17.726;2023-12-04T12:15:25;100752.19;;;2.23;58.92
71145;BME280;58812;47.698;17.726;2023-12-04T12:17:51;100749.34;;;2.10;58.20
71145;BME280;58812;47.698;17.726;2023-12-04T12:20:17;100736.16;;;1.93;59.25
71145;BME280;58812;47.698;17.726;2023-12-04T12:22:43;100735.09;;;1.97;60.15
71145;BME280;58812;47.698;17.726;2023-12-04T12:25:11;100725.47;;;1.96;59.95
71145;BME280;58812;47.698;17.726;2023-12-04T12:27:38;100726.94;;;2.02;60.04
71145;BME280;58812;47.698;17.726;2023-12-04T12:30:04;100716.00;;;1.57;60.02
71145;BME280;58812;47.698;17.726;2023-12-04T12:32:33;100712.13;;;1.65;61.34